createdAt,value
2022-09-02T00:01:47.717Z,25.64
2022-09-02T00:04:50.990Z,25.72
2022-09-02T00:07:55.482Z,25.48
2022-09-02T00:11:01.188Z,25.53
2022-09-02T00:14:14.251Z,25.49
2022-09-02T00:17:19.013Z,25.35
2022-09-02T00:20:22.722Z,25.29
2022-09-02T00:23:27.398Z,25.38
2022-09-02T00:26:30.799Z,25.40
2022-09-02T00:29:34.197Z,25.43
2022-09-02T00:32:39.103Z,25.30
2022-09-02T00:35:43.039Z,25.47
2022-09-02T00:38:46.691Z,25.56
2022-09-02T00:41:50.246Z,25.70
2022-09-02T00:44:54.276Z,25.81
2022-09-02T00:47:58.963Z,25.88
2022-09-02T00:51:04.356Z,25.68
2022-09-02T00:54:11.694Z,25.70
2022-09-02T00:57:19.707Z,25.60
2022-09-02T01:00:25.289Z,25.21
2022-09-02T01:03:36.262Z,25.48
2022-09-02T01:06:40.027Z,25.58
2022-09-02T01:09:43.577Z,25.25
2022-09-02T01:12:47.505Z,25.46
2022-09-02T01:15:56.310Z,25.42
2022-09-02T01:19:04.915Z,25.24
2022-09-02T01:22:16.838Z,25.49
2022-09-02T01:25:23.357Z,24.96
2022-09-02T01:28:27.022Z,24.98
2022-09-02T01:31:30.505Z,25.00
2022-09-02T01:34:36.693Z,24.73
2022-09-02T01:37:42.244Z,24.66
2022-09-02T01:40:58.295Z,24.69
2022-09-02T01:44:01.857Z,24.81
2022-09-02T01:47:06.023Z,25.14
2022-09-02T01:50:11.410Z,24.92
2022-09-02T01:53:16.711Z,24.85
2022-09-02T01:56:20.162Z,24.63
2022-09-02T01:59:25.049Z,24.92
2022-09-02T02:02:29.840Z,24.67
2022-09-02T02:05:33.573Z,24.84
2022-09-02T02:08:40.096Z,24.74
2022-09-02T02:11:44.136Z,24.86
2022-09-02T02:14:49.740Z,25.04
2022-09-02T02:17:53.176Z,24.62
2022-09-02T02:20:56.528Z,24.87
2022-09-02T02:24:02.539Z,24.93
2022-09-02T02:27:06.202Z,24.99
2022-09-02T02:30:11.646Z,24.84
2022-09-02T02:33:15.250Z,24.82
2022-09-02T02:36:19.867Z,24.90
2022-09-02T02:39:24.807Z,24.94
2022-09-02T02:42:28.237Z,24.86
2022-09-02T02:45:31.918Z,24.69
2022-09-02T02:48:36.929Z,24.71
2022-09-02T02:51:41.195Z,24.63
2022-09-02T02:54:45.899Z,24.51
2022-09-02T02:57:49.436Z,24.47
2022-09-02T03:00:54.169Z,24.32
2022-09-02T03:03:58.083Z,24.07
2022-09-02T03:07:01.539Z,24.08
2022-09-02T03:10:09.461Z,24.27
2022-09-02T03:13:15.703Z,24.41
2022-09-02T03:16:22.052Z,24.46
2022-09-02T03:19:25.382Z,24.48
2022-09-02T03:22:29.633Z,24.43
2022-09-02T03:25:36.255Z,24.41
2022-09-02T03:28:52.163Z,24.22
2022-09-02T03:31:56.261Z,24.07
2022-09-02T03:35:00.750Z,24.36
2022-09-02T03:38:04.106Z,24.43
2022-09-02T03:41:08.906Z,24.43
2022-09-02T03:44:12.967Z,24.33
2022-09-02T03:47:20.896Z,24.35
2022-09-02T03:50:32.607Z,24.54
2022-09-02T03:53:36.452Z,24.40
2022-09-02T03:56:41.259Z,24.44
2022-09-02T03:59:45.519Z,24.71
2022-09-02T04:02:50.135Z,24.63
2022-09-02T04:05:55.283Z,24.73
2022-09-02T04:09:01.070Z,24.58
2022-09-02T04:12:07.204Z,24.44
2022-09-02T04:15:13.709Z,24.35
2022-09-02T04:18:18.862Z,24.51
2022-09-02T04:21:22.293Z,24.73
2022-09-02T04:24:25.606Z,24.73
2022-09-02T04:27:30.906Z,24.86
2022-09-02T04:30:34.471Z,24.61
2022-09-02T04:33:39.421Z,24.66
2022-09-02T04:36:46.746Z,24.58
2022-09-02T04:39:50.400Z,24.61
2022-09-02T04:42:55.803Z,24.52
2022-09-02T04:46:01.706Z,24.67
2022-09-02T04:49:06.173Z,24.61
2022-09-02T04:52:10.695Z,24.73
2022-09-02T04:55:15.828Z,24.75
2022-09-02T04:58:21.122Z,25.01
2022-09-02T05:01:27.828Z,25.21
2022-09-02T05:04:34.438Z,25.08
2022-09-02T05:07:39.387Z,25.19
2022-09-02T05:10:44.055Z,25.20
2022-09-02T05:13:51.661Z,24.89
2022-09-02T05:16:57.318Z,25.15
2022-09-02T05:20:00.867Z,25.10
2022-09-02T05:23:04.255Z,25.15
2022-09-02T05:26:08.783Z,24.77
2022-09-02T05:29:15.587Z,24.77
2022-09-02T05:32:19.644Z,24.74
2022-09-02T05:35:25.021Z,24.80
2022-09-02T05:38:29.288Z,25.25
2022-09-02T05:41:33.946Z,25.23
2022-09-02T05:44:40.266Z,25.11
2022-09-02T05:47:44.544Z,24.80
2022-09-02T05:50:50.320Z,25.12
2022-09-02T05:54:02.879Z,25.36
2022-09-02T05:57:09.507Z,25.19
2022-09-02T06:00:18.110Z,25.24
2022-09-02T06:03:30.961Z,25.19
2022-09-02T06:06:36.016Z,25.57
2022-09-02T06:09:41.182Z,25.54
2022-09-02T06:12:45.081Z,25.19
2022-09-02T06:15:51.501Z,25.34
2022-09-02T06:18:55.863Z,25.79
2022-09-02T06:22:00.083Z,25.95
2022-09-02T06:25:03.611Z,25.74
2022-09-02T06:28:08.035Z,25.42
2022-09-02T06:31:19.300Z,25.35
2022-09-02T06:34:26.988Z,25.25
2022-09-02T06:37:31.862Z,25.57
2022-09-02T06:40:35.874Z,25.47
2022-09-02T06:43:42.769Z,25.76
2022-09-02T06:47:07.435Z,25.86
2022-09-02T06:50:11.569Z,25.93
2022-09-02T06:53:15.235Z,26.13
2022-09-02T06:56:19.337Z,26.21
2022-09-02T06:59:23.840Z,26.28
2022-09-02T07:02:31.838Z,26.34
2022-09-02T07:05:34.972Z,26.35
2022-09-02T07:08:39.456Z,26.34
2022-09-02T07:11:43.533Z,26.78
2022-09-02T07:14:47.209Z,26.87
2022-09-02T07:17:57.427Z,27.51
2022-09-02T07:21:10.723Z,28.02
2022-09-02T07:24:16.758Z,28.04
2022-09-02T07:27:21.383Z,27.50
2022-09-02T07:30:26.693Z,27.49
2022-09-02T07:33:41.495Z,27.54
2022-09-02T07:36:46.848Z,27.20
2022-09-02T07:39:50.325Z,26.91
2022-09-02T07:42:54.822Z,27.07
2022-09-02T07:46:00.931Z,27.10
2022-09-02T07:49:09.738Z,26.89
2022-09-02T07:52:13.615Z,27.02
2022-09-02T07:55:18.095Z,27.35
2022-09-02T07:58:23.807Z,27.32
2022-09-02T08:01:28.685Z,27.51
2022-09-02T08:04:33.646Z,27.70
2022-09-02T08:07:41.785Z,27.34
2022-09-02T08:10:47.095Z,27.43
2022-09-02T08:13:50.468Z,27.20
2022-09-02T08:16:54.345Z,27.48
2022-09-02T08:19:59.585Z,27.39
2022-09-02T08:23:11.840Z,27.57
2022-09-02T08:26:22.222Z,27.40
2022-09-02T08:29:27.013Z,27.34
2022-09-02T08:32:32.927Z,27.65
2022-09-02T08:35:37.734Z,27.46
2022-09-02T08:38:41.257Z,27.42
2022-09-02T08:41:56.031Z,27.41
2022-09-02T08:45:06.160Z,27.62
2022-09-02T08:48:20.530Z,27.86
2022-09-02T08:51:37.331Z,27.88
2022-09-02T08:54:53.108Z,27.82
2022-09-02T08:57:57.409Z,27.33
2022-09-02T09:01:09.322Z,27.26
2022-09-02T09:04:34.279Z,27.13
2022-09-02T09:08:12.351Z,26.66
2022-09-02T09:11:38.631Z,26.48
2022-09-02T09:14:56.023Z,26.28
2022-09-02T09:18:17.108Z,26.66
2022-09-02T09:21:46.185Z,26.66
2022-09-02T09:24:51.864Z,26.74
2022-09-02T09:27:55.202Z,26.36
2022-09-02T09:31:01.742Z,26.51
2022-09-02T09:34:06.797Z,26.52
2022-09-02T09:37:10.164Z,25.99
2022-09-02T09:40:30.883Z,25.78
2022-09-02T09:43:34.233Z,25.90
2022-09-02T09:46:37.575Z,25.63
2022-09-02T09:49:40.855Z,25.36
2022-09-02T09:52:44.294Z,25.70
2022-09-02T09:55:57.675Z,25.57
2022-09-02T09:59:01.078Z,25.18
2022-09-02T10:02:04.733Z,25.29
2022-09-02T10:05:22.877Z,25.41
2022-09-02T10:08:33.793Z,25.40
2022-09-02T10:11:54.931Z,25.74
2022-09-02T10:15:01.556Z,25.99
2022-09-02T10:18:15.560Z,26.06
2022-09-02T10:21:36.275Z,26.12
2022-09-02T10:24:54.275Z,25.99
2022-09-02T10:28:17.117Z,26.07
2022-09-02T10:31:30.380Z,26.20
2022-09-02T10:34:41.395Z,26.16
2022-09-02T10:38:01.296Z,26.02
2022-09-02T10:41:27.873Z,26.22
2022-09-02T10:44:38.361Z,26.27
2022-09-02T10:47:41.913Z,26.28
2022-09-02T10:50:50.372Z,26.29
2022-09-02T10:54:09.740Z,26.57
2022-09-02T10:57:17.253Z,26.71
2022-09-02T11:00:25.734Z,26.45
2022-09-02T11:03:42.499Z,26.38
2022-09-02T11:07:04.078Z,26.31
2022-09-02T11:10:16.156Z,26.20
2022-09-02T11:13:26.946Z,26.28
2022-09-02T11:16:40.190Z,26.49
2022-09-02T11:19:55.516Z,26.47
2022-09-02T11:23:03.355Z,25.99
2022-09-02T11:26:30.921Z,26.00
2022-09-02T11:29:42.362Z,26.06
2022-09-02T11:32:55.079Z,26.01
2022-09-02T11:36:00.954Z,25.63
2022-09-02T11:39:09.547Z,25.70
2022-09-02T11:42:28.727Z,25.75
2022-09-02T11:45:49.312Z,25.80
2022-09-02T11:49:30.707Z,25.53
2022-09-02T11:52:50.763Z,25.57
2022-09-02T11:55:57.241Z,25.55
2022-09-02T11:59:00.551Z,25.78
2022-09-02T12:02:04.038Z,25.79
2022-09-02T12:05:44.711Z,25.66
2022-09-02T12:09:05.707Z,25.84
2022-09-02T12:12:10.480Z,25.81
2022-09-02T12:15:22.037Z,25.77
2022-09-02T12:18:33.443Z,25.84
2022-09-02T12:21:39.102Z,25.77
2022-09-02T12:24:52.650Z,25.30
2022-09-02T12:28:19.148Z,25.38
2022-09-02T12:32:09.417Z,25.34
2022-09-02T12:36:05.469Z,25.65
2022-09-02T12:40:01.055Z,25.84
2022-09-02T12:43:49.718Z,25.89
2022-09-02T12:47:32.621Z,25.94
2022-09-02T12:50:56.576Z,25.58
2022-09-02T12:54:00.466Z,25.79
2022-09-02T12:57:05.888Z,25.94
2022-09-02T13:00:14.081Z,26.07
2022-09-02T13:03:37.440Z,26.24
2022-09-02T13:07:11.566Z,26.05
2022-09-02T13:10:56.883Z,26.01
2022-09-02T13:14:36.410Z,25.84
2022-09-02T13:18:12.328Z,25.94
2022-09-02T13:21:49.466Z,25.75
2022-09-02T13:25:23.395Z,26.00
2022-09-02T13:29:13.577Z,25.90
2022-09-02T13:32:24.460Z,26.02
2022-09-02T13:35:29.628Z,26.20
2022-09-02T13:38:34.813Z,26.31
2022-09-02T13:41:38.644Z,26.06
2022-09-02T13:44:42.024Z,25.97
2022-09-02T13:47:48.330Z,26.01
2022-09-02T13:50:54.409Z,26.17
2022-09-02T13:54:22.202Z,25.84
2022-09-02T13:57:26.340Z,25.98
2022-09-02T14:00:34.673Z,26.16
2022-09-02T14:03:39.046Z,26.07
2022-09-02T14:06:45.828Z,25.67
2022-09-02T14:09:51.358Z,26.13
2022-09-02T14:12:56.258Z,26.17
2022-09-02T14:16:33.542Z,26.23
2022-09-02T14:19:37.057Z,26.28
2022-09-02T14:22:40.627Z,26.34
2022-09-02T14:25:53.027Z,26.13
2022-09-02T14:28:56.786Z,26.08
2022-09-02T14:32:15.115Z,26.05
2022-09-02T14:35:24.031Z,25.95
2022-09-02T14:38:28.875Z,26.11
2022-09-02T14:41:37.299Z,26.20
2022-09-02T14:44:40.851Z,26.33
2022-09-02T14:47:44.174Z,26.40
2022-09-02T14:50:47.679Z,26.51
2022-09-02T14:53:51.065Z,26.37
2022-09-02T14:56:55.762Z,26.66
2022-09-02T15:00:00.435Z,26.34
2022-09-02T15:03:03.779Z,26.13
2022-09-02T15:06:09.885Z,26.37
2022-09-02T15:09:17.376Z,26.54
2022-09-02T15:12:25.748Z,26.26
2022-09-02T15:15:29.184Z,25.92
2022-09-02T15:18:32.525Z,26.13
2022-09-02T15:21:35.839Z,25.43
2022-09-02T15:24:39.179Z,25.05
2022-09-02T15:27:43.874Z,24.86
2022-09-02T15:30:47.318Z,25.07
2022-09-02T15:33:52.252Z,24.68
2022-09-02T15:36:57.444Z,24.73
2022-09-02T15:40:01.037Z,24.78
2022-09-02T15:43:05.942Z,24.94
2022-09-02T15:46:21.816Z,24.79
2022-09-02T15:49:25.360Z,25.05
2022-09-02T15:52:28.720Z,24.88
2022-09-02T15:55:33.660Z,24.84
2022-09-02T15:58:38.320Z,25.04
2022-09-02T16:01:44.399Z,25.13
2022-09-02T16:04:47.909Z,25.09
2022-09-02T16:07:52.245Z,25.09
2022-09-02T16:10:55.569Z,25.20
2022-09-02T16:14:00.335Z,24.86
2022-09-02T16:17:03.703Z,25.10
2022-09-02T16:20:07.758Z,25.19
2022-09-02T16:23:11.031Z,25.07
2022-09-02T16:26:16.867Z,24.87
2022-09-02T16:29:21.656Z,24.99
2022-09-02T16:32:27.798Z,25.09
2022-09-02T16:35:31.317Z,25.08
2022-09-02T16:38:35.769Z,24.97
2022-09-02T16:41:42.258Z,24.84
2022-09-02T16:44:47.030Z,24.91
2022-09-02T16:47:54.968Z,24.83
2022-09-02T16:51:03.359Z,24.69
2022-09-02T16:54:07.044Z,24.53
2022-09-02T16:57:10.453Z,24.74
2022-09-02T17:00:17.132Z,24.88
2022-09-02T17:03:20.452Z,25.01
2022-09-02T17:06:23.810Z,24.67
2022-09-02T17:09:27.159Z,25.01
2022-09-02T17:12:30.633Z,24.95
2022-09-02T17:15:35.373Z,24.93
2022-09-02T17:18:38.728Z,25.05
2022-09-02T17:21:44.166Z,25.14
2022-09-02T17:24:51.730Z,25.16
2022-09-02T17:27:56.921Z,25.09
2022-09-02T17:31:05.529Z,25.12
2022-09-02T17:34:10.719Z,25.22
2022-09-02T17:37:14.221Z,25.16
2022-09-02T17:40:31.392Z,25.30
2022-09-02T17:43:38.449Z,25.25
2022-09-02T17:46:44.549Z,25.35
2022-09-02T17:49:49.036Z,25.37
2022-09-02T17:52:52.489Z,25.31
2022-09-02T17:56:06.044Z,25.41
2022-09-02T17:59:19.901Z,25.37
2022-09-02T18:02:57.809Z,24.91
2022-09-02T18:06:12.829Z,25.26
2022-09-02T18:09:20.098Z,25.20
2022-09-02T18:12:24.701Z,25.34
2022-09-02T18:15:28.359Z,25.33
2022-09-02T18:18:33.608Z,25.24
2022-09-02T18:21:49.033Z,24.84
2022-09-02T18:25:03.453Z,24.82
2022-09-02T18:28:17.339Z,24.77
2022-09-02T18:31:35.792Z,24.78
2022-09-02T18:34:52.462Z,24.92
2022-09-02T18:38:06.072Z,24.93
2022-09-02T18:41:23.588Z,24.92
2022-09-02T18:44:36.505Z,24.90
2022-09-02T18:47:45.764Z,25.01
2022-09-02T18:50:54.851Z,25.03
2022-09-02T18:54:03.046Z,24.97
2022-09-02T18:57:09.372Z,24.95
2022-09-02T19:00:16.548Z,24.87
2022-09-02T19:03:20.821Z,24.85
2022-09-02T19:06:34.255Z,24.98
2022-09-02T19:09:36.932Z,24.65
2022-09-02T19:12:40.608Z,24.66
2022-09-02T19:15:43.934Z,24.39
2022-09-02T19:18:47.377Z,23.98
2022-09-02T19:21:55.403Z,24.11
2022-09-02T19:25:03.372Z,23.68
2022-09-02T19:28:07.263Z,23.97
2022-09-02T19:31:18.190Z,24.16
2022-09-02T19:34:22.761Z,24.44
2022-09-02T19:37:27.718Z,24.50
2022-09-02T19:40:33.729Z,24.57
2022-09-02T19:43:40.919Z,24.28
2022-09-02T19:47:30.716Z,24.53
2022-09-02T19:50:08.610Z,24.38
2022-09-02T19:53:19.284Z,24.04
2022-09-02T19:56:22.672Z,24.01
2022-09-02T19:59:26.798Z,23.96
2022-09-02T20:02:30.264Z,23.97
2022-09-02T20:05:33.863Z,24.40
2022-09-02T20:08:38.627Z,24.39
2022-09-02T20:11:41.919Z,23.85
2022-09-02T20:14:45.797Z,23.77
2022-09-02T20:17:50.913Z,24.09
2022-09-02T20:20:56.099Z,24.40
2022-09-02T20:24:06.528Z,24.49
2022-09-02T20:27:19.859Z,24.33
2022-09-02T20:30:23.339Z,24.18
2022-09-02T20:33:35.110Z,23.79
2022-09-02T20:36:47.654Z,24.27
2022-09-02T20:40:13.753Z,24.48
2022-09-02T20:43:35.214Z,24.60
2022-09-02T20:46:56.205Z,24.42
2022-09-02T20:50:13.906Z,24.21
2022-09-02T20:53:42.756Z,24.43
2022-09-02T20:56:53.014Z,24.40
2022-09-02T21:00:04.971Z,24.52
2022-09-02T21:03:12.248Z,24.54
2022-09-02T21:06:15.982Z,24.51
2022-09-02T21:09:29.134Z,24.58
2022-09-02T21:12:40.973Z,24.70
2022-09-02T21:15:49.264Z,24.52
2022-09-02T21:19:02.091Z,24.48
2022-09-02T21:22:10.507Z,24.50
2022-09-02T21:25:18.270Z,24.65
2022-09-02T21:28:30.191Z,24.54
2022-09-02T21:31:36.977Z,24.71
2022-09-02T21:34:45.940Z,24.61
2022-09-02T21:37:54.804Z,24.48
2022-09-02T21:41:12.663Z,24.48
2022-09-02T21:44:24.731Z,24.56
2022-09-02T21:47:36.814Z,24.44
2022-09-02T21:50:46.698Z,24.34
2022-09-02T21:54:02.063Z,24.36
2022-09-02T21:57:40.018Z,24.24
2022-09-02T22:00:50.125Z,24.30
2022-09-02T22:04:04.110Z,24.20
2022-09-02T22:07:19.102Z,24.13
2022-09-02T22:10:32.949Z,23.94
2022-09-02T22:13:40.268Z,23.64
2022-09-02T22:16:54.736Z,23.81
2022-09-02T22:20:02.756Z,24.04
2022-09-02T22:23:14.977Z,23.66
2022-09-02T22:26:29.012Z,23.64
2022-09-02T22:29:38.924Z,23.84
2022-09-02T22:32:46.138Z,23.48
2022-09-02T22:35:56.350Z,23.41
2022-09-02T22:39:32.716Z,23.40
2022-09-02T22:42:38.013Z,23.43
2022-09-02T22:46:04.515Z,23.63
2022-09-02T22:49:32.553Z,23.45
2022-09-02T22:52:49.310Z,23.37
2022-09-02T22:56:02.405Z,23.37
2022-09-02T22:59:26.825Z,23.24
2022-09-02T23:02:36.329Z,23.11
2022-09-02T23:05:53.264Z,23.00
2022-09-02T23:08:57.355Z,22.83
2022-09-02T23:12:08.870Z,22.88
2022-09-02T23:15:24.787Z,23.15
2022-09-02T23:18:52.682Z,23.01
2022-09-02T23:22:05.836Z,23.27
2022-09-02T23:25:30.327Z,23.12
2022-09-02T23:28:43.640Z,22.97
2022-09-02T23:32:00.776Z,22.97
2022-09-02T23:35:17.669Z,23.33
2022-09-02T23:38:45.653Z,23.43
2022-09-02T23:41:48.980Z,23.10
2022-09-02T23:44:52.413Z,23.41
2022-09-02T23:48:11.891Z,23.28
2022-09-02T23:51:19.593Z,23.51
2022-09-02T23:54:47.520Z,23.63
2022-09-02T23:58:07.151Z,23.49
